Time;durP1;ratioP1;P1;durP2;ratioP2;P2;SDS_P1;SDS_P2;PMS_P1;PMS_P2;Temp;Humidity;BMP_temperature;BMP_pressure;BME280_temperature;BME280_humidity;BME280_pressure;Samples;Min_cycle;Max_cycle;Signal;HPM_P1;HPM_P2
2023/07/18 00:01:31;;;;;;;;;;;;;;;;;;5004429;28;20117;-86
2023/07/18 00:03:57;;;;;;;;;;;;;;;;;;5003516;28;19943;-87
2023/07/18 00:06:24;;;;;;;;;;;;;;;;;;5002253;28;19922;-87
2023/07/18 00:08:50;;;;;;;;;;;;;;;;;;5003035;28;19925;-88
2023/07/18 00:11:16;;;;;;;;;;;;;;;;;;5020168;28;19921;-87
2023/07/18 00:13:42;;;;;;;;;;;;;;;;;;5004337;28;20371;-87
2023/07/18 00:16:08;;;;;;;;;;;;;;;;;;5003341;28;19921;-88
2023/07/18 00:18:34;;;;;;;;;;;;;;;;;;5004132;28;19932;-87
2023/07/18 00:21:00;;;;;;;;;;;;;;;;;;5021086;28;19921;-87
2023/07/18 00:23:27;;;;;;;;;;;;;;;;;;5001133;28;19983;-87
2023/07/18 00:25:53;;;;;;;;;;;;;;;;;;5003862;28;19921;-87
2023/07/18 00:28:19;;;;;;;;;;;;;;;;;;5004826;28;19976;-84
2023/07/18 00:30:45;;;;;;;;;;;;;;;;;;5007207;28;19925;-87
2023/07/18 00:33:11;;;;;;;;;;;;;;;;;;5024693;28;19925;-87
2023/07/18 00:35:37;;;;;;;;;;;;;;;;;;5023274;28;19928;-87
2023/07/18 00:38:03;;;;;;;;;;;;;;;;;;5006306;28;19925;-88
2023/07/18 00:40:29;;;;;;;;;;;;;;;;;;5007654;28;19956;-87
2023/07/18 00:42:55;;;;;;;;;;;;;;;;;;5008218;28;19920;-87
2023/07/18 00:45:21;;;;;;;;;;;;;;;;;;5006667;28;19939;-88
2023/07/18 00:47:47;;;;;;;;;;;;;;;;;;5008067;28;20035;-87
2023/07/18 00:50:14;;;;;;;;;;;;;;;;;;5023123;28;20404;-87
2023/07/18 00:52:43;;;;;;;;;;;;;;;;;;5022995;28;19921;-87
2023/07/18 00:55:10;;;;;;;;;;;;;;;;;;5007385;28;20307;-87
2023/07/18 00:57:36;;;;;;;;;;;;;;;;;;5007168;28;20438;-87
2023/07/18 01:00:08;;;;;;;;;;;;;;;;;;5023507;28;20315;-89
2023/07/18 01:02:34;;;;;;;;;;;;;;;;;;5007381;28;20633;-88
2023/07/18 01:05:00;;;;;;;;;;;;;;;;;;5007003;28;19925;-87
2023/07/18 01:07:26;;;;;;;;;;;;;;;;;;5006703;28;19925;-88
2023/07/18 01:09:53;;;;;;;;;;;;;;;;;;5006170;28;19925;-83
2023/07/18 01:12:19;;;;;;;;;;;;;;;;;;5007583;28;20360;-87
2023/07/18 01:14:45;;;;;;;;;;;;;;;;;;5006884;28;19921;-88
2023/07/18 01:17:12;;;;;;;;;;;;;;;;;;5005828;28;20397;-88
2023/07/18 01:19:38;;;;;;;;;;;;;;;;;;5007054;28;20016;-87
2023/07/18 01:22:04;;;;;;;;;;;;;;;;;;5007182;28;20363;-86
2023/07/18 01:24:30;;;;;;;;;;;;;;;;;;5008277;28;19921;-87
2023/07/18 01:26:56;;;;;;;;;;;;;;;;;;5007901;28;19925;-87
2023/07/18 01:29:22;;;;;;;;;;;;;;;;;;5007036;28;20414;-87
2023/07/18 01:31:48;;;;;;;;;;;;;;;;;;5023655;28;19921;-87
2023/07/18 01:34:14;;;;;;;;;;;;;;;;;;5007414;28;19928;-86
2023/07/18 01:36:54;;;;;;;;;;;;;;;;;;5007512;28;19921;-86
2023/07/18 01:39:20;;;;;;;;;;;;;;;;;;5023386;28;19925;-87
2023/07/18 01:41:47;;;;;;;;;;;;;;;;;;5005983;28;19921;-88
2023/07/18 01:44:13;;;;;;;;;;;;;;;;;;5006972;28;19921;-88
2023/07/18 01:46:39;;;;;;;;;;;;;;;;;;5006831;28;20299;-88
2023/07/18 01:49:05;;;;;;;;;;;;;;;;;;5006319;28;19953;-86
2023/07/18 01:51:31;;;;;;;;;;;;;;;;;;5006126;28;19944;-85
2023/07/18 01:53:57;;;;;;;;;;;;;;;;;;5005922;28;19913;-86
2023/07/18 01:56:22;;;;;;;;;;;;;;;;;;5005960;28;19921;-87
2023/07/18 01:58:49;;;;;;;;;;;;;;;;;;5006013;28;19933;-87
2023/07/18 02:01:15;;;;;;;;;;;;;;;;;;5004932;28;19927;-88
2023/07/18 02:03:41;;;;;;;;;;;;;;;;;;5005198;28;19956;-86
2023/07/18 02:06:09;;;;;;;;;;;;;;;;;;5005745;28;19965;-86
2023/07/18 02:08:35;;;;;;;;;;;;;;;;;;5005512;28;19975;-87
2023/07/18 02:11:01;;;;;;;;;;;;;;;;;;5005994;28;19921;-87
2023/07/18 02:13:28;;;;;;;;;;;;;;;;;;5006020;28;20345;-87
2023/07/18 02:15:54;;;;;;;;;;;;;;;;;;5005701;28;19921;-86
2023/07/18 02:18:20;;;;;;;;;;;;;;;;;;5005564;28;19932;-87
2023/07/18 02:20:46;;;;;;;;;;;;;;;;;;5021692;28;19921;-87
2023/07/18 02:23:12;;;;;;;;;;;;;;;;;;4994049;28;19922;-87
2023/07/18 02:25:38;;;;;;;;;;;;;;;;;;4998406;28;20280;-87
2023/07/18 02:28:05;;;;;;;;;;;;;;;;;;5005619;28;19921;-87
2023/07/18 02:30:32;;;;;;;;;;;;;;;;;;5005427;28;19964;-86
2023/07/18 02:32:58;;;;;;;;;;;;;;;;;;5021349;28;20015;-84
2023/07/18 02:35:24;;;;;;;;;;;;;;;;;;5021469;28;19960;-87
2023/07/18 02:37:50;;;;;;;;;;;;;;;;;;5005513;28;20368;-87
2023/07/18 02:40:17;;;;;;;;;;;;;;;;;;5004790;28;19936;-86
2023/07/18 02:42:43;;;;;;;;;;;;;;;;;;5004575;28;20303;-88
2023/07/18 02:45:09;;;;;;;;;;;;;;;;;;5004501;28;19921;-88
2023/07/18 02:47:35;;;;;;;;;;;;;;;;;;5005034;28;20343;-87
2023/07/18 02:50:00;;;;;;;;;;;;;;;;;;5020830;28;19921;-87
2023/07/18 02:52:26;;;;;;;;;;;;;;;;;;5005613;28;19975;-88
2023/07/18 02:54:53;;;;;;;;;;;;;;;;;;5004522;28;19947;-87
2023/07/18 02:57:19;;;;;;;;;;;;;;;;;;5005300;28;20426;-88
2023/07/18 02:59:45;;;;;;;;;;;;;;;;;;5005740;28;19925;-88
2023/07/18 03:02:11;;;;;;;;;;;;;;;;;;5004698;28;19932;-86
2023/07/18 03:04:37;;;;;;;;;;;;;;;;;;5004941;28;20407;-88
2023/07/18 03:07:03;;;;;;;;;;;;;;;;;;5005303;28;20010;-86
2023/07/18 03:09:34;;;;;;;;;;;;;;;;;;5004451;28;19921;-86
2023/07/18 03:12:00;;;;;;;;;;;;;;;;;;5004444;28;19921;-84
2023/07/18 03:14:26;;;;;;;;;;;;;;;;;;5003766;28;20541;-86
2023/07/18 03:16:51;;;;;;;;;;;;;;;;;;5004308;28;19921;-87
2023/07/18 03:19:17;;;;;;;;;;;;;;;;;;5004380;28;20027;-87
2023/07/18 03:21:44;;;;;;;;;;;;;;;;;;5003487;28;20012;-86
2023/07/18 03:26:59;;;;;;;;;;;;;;;;;;5020799;28;20004;-88
2023/07/18 03:29:25;;;;;;;;;;;;;;;;;;5004178;28;19928;-88
2023/07/18 03:31:51;;;;;;;;;;;;;;;;;;5020270;28;19921;-87
2023/07/18 03:34:17;;;;;;;;;;;;;;;;;;5005239;28;19943;-88
2023/07/18 03:36:43;;;;;;;;;;;;;;;;;;5004586;28;20447;-88
2023/07/18 03:39:10;;;;;;;;;;;;;;;;;;5020776;28;19964;-88
2023/07/18 03:41:37;;;;;;;;;;;;;;;;;;5003847;28;20376;-88
2023/07/18 03:44:03;;;;;;;;;;;;;;;;;;5004069;28;19948;-88
2023/07/18 03:46:29;;;;;;;;;;;;;;;;;;5004714;28;19921;-88
2023/07/18 03:48:55;;;;;;;;;;;;;;;;;;5004928;28;19921;-87
2023/07/18 03:51:21;;;;;;;;;;;;;;;;;;5004659;28;19931;-87
2023/07/18 03:53:47;;;;;;;;;;;;;;;;;;5004027;28;19976;-88
2023/07/18 03:56:15;;;;;;;;;;;;;;;;;;5003622;28;19932;-84
2023/07/18 03:58:41;;;;;;;;;;;;;;;;;;5003642;28;20375;-87
2023/07/18 04:01:07;;;;;;;;;;;;;;;;;;5004037;28;19967;-89
2023/07/18 04:03:34;;;;;;;;;;;;;;;;;;5002614;28;19925;-87
2023/07/18 04:06:01;;;;;;;;;;;;;;;;;;5004124;28;19925;-87
2023/07/18 04:08:28;;;;;;;;;;;;;;;;;;5002440;28;19921;-88
2023/07/18 04:10:54;;;;;;;;;;;;;;;;;;5003066;28;20361;-87
2023/07/18 04:13:20;;;;;;;;;;;;;;;;;;5002700;28;19921;-86
2023/07/18 04:15:46;;;;;;;;;;;;;;;;;;4983328;28;20262;-87
2023/07/18 04:18:12;;;;;;;;;;;;;;;;;;4983288;28;19988;-88
2023/07/18 04:20:38;;;;;;;;;;;;;;;;;;4982810;28;19921;-87
2023/07/18 04:23:04;;;;;;;;;;;;;;;;;;4983677;28;19929;-88
2023/07/18 04:25:32;;;;;;;;;;;;;;;;;;4984025;28;20339;-87
2023/07/18 04:27:58;;;;;;;;;;;;;;;;;;5001493;28;19922;-89
2023/07/18 04:30:24;;;;;;;;;;;;;;;;;;4983937;28;20375;-88
2023/07/18 04:32:50;;;;;;;;;;;;;;;;;;4983715;28;20402;-87
2023/07/18 04:35:16;;;;;;;;;;;;;;;;;;4983806;28;20016;-86
2023/07/18 04:37:42;;;;;;;;;;;;;;;;;;4983720;28;19936;-87
2023/07/18 04:40:08;;;;;;;;;;;;;;;;;;4988018;28;19925;-87
2023/07/18 04:42:34;;;;;;;;;;;;;;;;;;5019198;28;19921;-85
2023/07/18 04:45:00;;;;;;;;;;;;;;;;;;5001853;28;19921;-86
2023/07/18 04:47:26;;;;;;;;;;;;;;;;;;5001801;28;19922;-86
2023/07/18 04:49:52;;;;;;;;;;;;;;;;;;5001945;28;19925;-85
2023/07/18 04:52:18;;;;;;;;;;;;;;;;;;5001819;28;20272;-85
2023/07/18 04:54:44;;;;;;;;;;;;;;;;;;5001941;28;19921;-87
2023/07/18 04:57:10;;;;;;;;;;;;;;;;;;5002591;28;19926;-86
2023/07/18 04:59:36;;;;;;;;;;;;;;;;;;5001742;28;19921;-86
2023/07/18 05:02:02;;;;;;;;;;;;;;;;;;5003183;28;19933;-86
2023/07/18 05:04:28;;;;;;;;;;;;;;;;;;5002902;28;19927;-86
2023/07/18 05:07:00;;;;;;;;;;;;;;;;;;5002562;28;19968;-87
2023/07/18 05:09:27;;;;;;;;;;;;;;;;;;5002326;28;19921;-86
2023/07/18 05:11:54;;;;;;;;;;;;;;;;;;5001991;28;19928;-85
2023/07/18 05:14:20;;;;;;;;;;;;;;;;;;5003788;28;19921;-86
2023/07/18 05:16:46;;;;;;;;;;;;;;;;;;5005887;28;19979;-86
2023/07/18 05:19:12;;;;;;;;;;;;;;;;;;5005486;28;19929;-85
2023/07/18 05:21:38;;;;;;;;;;;;;;;;;;5022064;28;20686;-85
2023/07/18 05:24:03;;;;;;;;;;;;;;;;;;5005334;28;19922;-86
2023/07/18 05:26:29;;;;;;;;;;;;;;;;;;5005349;28;19922;-85
2023/07/18 05:28:55;;;;;;;;;;;;;;;;;;5004933;28;20543;-85
2023/07/18 05:31:21;;;;;;;;;;;;;;;;;;5004273;28;20008;-85
2023/07/18 05:33:47;;;;;;;;;;;;;;;;;;5005488;28;19921;-86
2023/07/18 05:36:15;;;;;;;;;;;;;;;;;;5005168;28;20542;-86
2023/07/18 05:38:41;;;;;;;;;;;;;;;;;;5004502;28;20015;-85
2023/07/18 05:41:07;;;;;;;;;;;;;;;;;;5005226;28;19964;-86
2023/07/18 05:43:33;;;;;;;;;;;;;;;;;;5005481;28;19921;-85
2023/07/18 05:45:59;;;;;;;;;;;;;;;;;;5021515;28;19974;-86
2023/07/18 05:48:25;;;;;;;;;;;;;;;;;;5021200;28;19986;-86
2023/07/18 05:50:51;;;;;;;;;;;;;;;;;;5003712;28;20330;-86
2023/07/18 05:53:17;;;;;;;;;;;;;;;;;;5005788;28;19928;-84
2023/07/18 05:55:42;;;;;;;;;;;;;;;;;;5004323;28;20380;-85
2023/07/18 05:58:09;;;;;;;;;;;;;;;;;;5004488;28;20039;-86
2023/07/18 06:00:35;;;;;;;;;;;;;;;;;;5004133;28;20011;-84
2023/07/18 06:03:01;;;;;;;;;;;;;;;;;;5004846;28;19961;-86
2023/07/18 06:05:27;;;;;;;;;;;;;;;;;;5005031;28;19929;-85
2023/07/18 06:07:53;;;;;;;;;;;;;;;;;;5004458;28;20008;-85
2023/07/18 06:10:19;;;;;;;;;;;;;;;;;;5003166;28;19921;-86
2023/07/18 06:12:45;;;;;;;;;;;;;;;;;;5004577;28;20403;-85
2023/07/18 06:15:11;;;;;;;;;;;;;;;;;;5004515;28;19930;-85
2023/07/18 06:17:37;;;;;;;;;;;;;;;;;;5004245;28;19933;-84
2023/07/18 06:20:06;;;;;;;;;;;;;;;;;;5003859;28;19925;-85
2023/07/18 06:22:32;;;;;;;;;;;;;;;;;;5020012;28;19925;-85
2023/07/18 06:24:58;;;;;;;;;;;;;;;;;;5004399;28;20318;-87
2023/07/18 06:27:26;;;;;;;;;;;;;;;;;;5019989;28;19921;-86
2023/07/18 06:29:52;;;;;;;;;;;;;;;;;;5003900;28;19929;-86
2023/07/18 06:32:19;;;;;;;;;;;;;;;;;;5004223;28;19921;-85
2023/07/18 06:34:44;;;;;;;;;;;;;;;;;;5004747;28;19921;-84
2023/07/18 06:37:10;;;;;;;;;;;;;;;;;;5004157;28;20376;-85
2023/07/18 06:39:36;;;;;;;;;;;;;;;;;;5003758;28;20300;-86
2023/07/18 06:42:05;;;;;;;;;;;;;;;;;;5004175;28;19952;-86
2023/07/18 06:44:30;;;;;;;;;;;;;;;;;;5004747;28;19921;-85
2023/07/18 06:46:56;;;;;;;;;;;;;;;;;;5003582;28;19925;-85
2023/07/18 06:49:22;;;;;;;;;;;;;;;;;;5004096;28;19933;-84
2023/07/18 06:54:52;;;;;;;;;;;;;;;;;;5037994;28;19924;-86
2023/07/18 06:57:18;;;;;;;;;;;;;;;;;;5004155;28;19925;-83
2023/07/18 06:59:44;;;;;;;;;;;;;;;;;;5019131;28;19928;-85
2023/07/18 07:02:11;;;;;;;;;;;;;;;;;;5002560;28;19956;-85
2023/07/18 07:04:37;;;;;;;;;;;;;;;;;;5003932;28;20311;-87
2023/07/18 07:07:03;;;;;;;;;;;;;;;;;;5019754;28;19921;-86
2023/07/18 07:09:29;;;;;;;;;;;;;;;;;;5002460;28;19925;-86
2023/07/18 07:11:55;;;;;;;;;;;;;;;;;;5019556;28;20011;-85
2023/07/18 07:14:21;;;;;;;;;;;;;;;;;;5003011;28;19971;-87
2023/07/18 07:16:47;;;;;;;;;;;;;;;;;;5003269;28;19928;-85
2023/07/18 07:19:13;;;;;;;;;;;;;;;;;;5020140;28;19925;-85
2023/07/18 07:21:39;;;;;;;;;;;;;;;;;;5002930;28;20395;-84
2023/07/18 07:24:05;;;;;;;;;;;;;;;;;;5002897;28;19921;-83
2023/07/18 07:26:31;;;;;;;;;;;;;;;;;;5003391;28;19920;-85
2023/07/18 07:28:57;;;;;;;;;;;;;;;;;;5003214;28;19921;-85
2023/07/18 07:31:23;;;;;;;;;;;;;;;;;;5002168;28;20308;-85
2023/07/18 07:33:49;;;;;;;;;;;;;;;;;;5003439;28;20331;-85
2023/07/18 07:36:15;;;;;;;;;;;;;;;;;;5003815;28;19921;-84
2023/07/18 07:38:41;;;;;;;;;;;;;;;;;;5002663;28;20003;-85
2023/07/18 07:41:07;;;;;;;;;;;;;;;;;;5002276;28;20392;-87
2023/07/18 07:43:33;;;;;;;;;;;;;;;;;;5002750;28;19925;-86
2023/07/18 07:45:59;;;;;;;;;;;;;;;;;;5002361;28;19924;-84
2023/07/18 07:48:24;;;;;;;;;;;;;;;;;;5003382;28;19928;-85
2023/07/18 07:50:50;;;;;;;;;;;;;;;;;;5002038;28;20008;-85
2023/07/18 07:56:07;;;;;;;;;;;;;;;;;;5019657;28;20268;-88
2023/07/18 07:58:33;;;;;;;;;;;;;;;;;;5003695;28;19932;-86
2023/07/18 08:01:03;;;;;;;;;;;;;;;;;;5036061;28;20368;-85
2023/07/18 08:03:28;;;;;;;;;;;;;;;;;;5018538;28;19921;-86
2023/07/18 08:05:54;;;;;;;;;;;;;;;;;;5019307;28;19928;-85
2023/07/18 08:08:20;;;;;;;;;;;;;;;;;;5019155;28;19921;-84
2023/07/18 08:10:48;;;;;;;;;;;;;;;;;;5018502;28;20371;-86
2023/07/18 08:13:16;;;;;;;;;;;;;;;;;;5018275;28;19928;-85
2023/07/18 08:15:42;;;;;;;;;;;;;;;;;;5017912;28;19925;-85
2023/07/18 08:18:08;;;;;;;;;;;;;;;;;;5019361;28;19925;-85
2023/07/18 08:20:35;;;;;;;;;;;;;;;;;;5019364;28;19921;-88
2023/07/18 08:23:01;;;;;;;;;;;;;;;;;;5020944;28;19921;-89
2023/07/18 08:25:27;;;;;;;;;;;;;;;;;;5021126;28;19960;-88
2023/07/18 08:27:53;;;;;;;;;;;;;;;;;;5020238;28;19921;-86
2023/07/18 08:30:19;;;;;;;;;;;;;;;;;;5019946;28;20062;-87
2023/07/18 08:32:45;;;;;;;;;;;;;;;;;;5020483;28;20338;-88
2023/07/18 08:35:11;;;;;;;;;;;;;;;;;;5022450;28;19925;-86
2023/07/18 08:37:39;;;;;;;;;;;;;;;;;;5021998;28;19925;-88
2023/07/18 08:40:05;;;;;;;;;;;;;;;;;;5020935;28;20008;-86
2023/07/18 08:42:32;;;;;;;;;;;;;;;;;;5021767;28;19956;-87
2023/07/18 08:44:57;;;;;;;;;;;;;;;;;;5021530;28;19927;-88
2023/07/18 08:47:23;;;;;;;;;;;;;;;;;;5020365;28;20399;-85
2023/07/18 08:49:49;;;;;;;;;;;;;;;;;;5022028;28;19921;-88
2023/07/18 08:52:15;;;;;;;;;;;;;;;;;;5024007;28;19921;-87
2023/07/18 08:54:41;;;;;;;;;;;;;;;;;;5023942;28;19921;-88
2023/07/18 08:57:15;;;;;;;;;;;;;;;;;;5024871;28;19925;-86
2023/07/18 08:59:42;;;;;;;;;;;;;;;;;;5007408;28;19925;-87
2023/07/18 09:02:08;;;;;;;;;;;;;;;;;;5007272;28;20273;-87
2023/07/18 09:04:34;;;;;;;;;;;;;;;;;;5007102;28;19928;-87
2023/07/18 09:07:03;;;;;;;;;;;;;;;;;;5023668;28;19928;-88
2023/07/18 09:09:29;;;;;;;;;;;;;;;;;;5006883;28;19921;-87
2023/07/18 09:12:10;;;;;;;;;;;;;;;;;;5007316;28;19921;-87
2023/07/18 09:14:36;;;;;;;;;;;;;;;;;;5007967;28;20380;-87
2023/07/18 09:17:03;;;;;;;;;;;;;;;;;;5007018;28;19932;-88
2023/07/18 09:19:29;;;;;;;;;;;;;;;;;;5008906;28;19924;-88
2023/07/18 09:21:56;;;;;;;;;;;;;;;;;;5008300;28;20371;-89
2023/07/18 09:24:22;;;;;;;;;;;;;;;;;;5008398;28;19929;-88
2023/07/18 09:26:48;;;;;;;;;;;;;;;;;;5024499;28;20341;-88
2023/07/18 09:29:14;;;;;;;;;;;;;;;;;;5008289;28;19928;-86
2023/07/18 09:31:39;;;;;;;;;;;;;;;;;;5007178;28;19929;-88
2023/07/18 09:34:05;;;;;;;;;;;;;;;;;;5007252;28;19932;-87
2023/07/18 09:36:33;;;;;;;;;;;;;;;;;;5008010;28;20004;-88
2023/07/18 09:38:59;;;;;;;;;;;;;;;;;;5008773;28;20323;-88
2023/07/18 09:41:25;;;;;;;;;;;;;;;;;;5007847;28;19921;-87
2023/07/18 09:43:51;;;;;;;;;;;;;;;;;;5006973;28;20289;-88
2023/07/18 09:46:17;;;;;;;;;;;;;;;;;;5007927;28;19921;-87
2023/07/18 09:48:43;;;;;;;;;;;;;;;;;;5007710;28;19921;-89
2023/07/18 09:51:09;;;;;;;;;;;;;;;;;;5008402;28;19921;-87
2023/07/18 09:53:35;;;;;;;;;;;;;;;;;;5008086;28;19921;-88
2023/07/18 09:56:03;;;;;;;;;;;;;;;;;;5023513;28;19928;-90
2023/07/18 09:58:29;;;;;;;;;;;;;;;;;;5008414;28;20433;-87
2023/07/18 10:00:54;;;;;;;;;;;;;;;;;;5006959;28;19921;-91
2023/07/18 10:03:20;;;;;;;;;;;;;;;;;;5007748;28;20319;-87
2023/07/18 10:05:49;;;;;;;;;;;;;;;;;;5008202;28;19921;-87
2023/07/18 10:08:19;;;;;;;;;;;;;;;;;;5007875;28;19921;-88
2023/07/18 10:10:45;;;;;;;;;;;;;;;;;;5007623;28;19964;-88
2023/07/18 10:13:11;;;;;;;;;;;;;;;;;;5005948;28;19920;-85
2023/07/18 10:15:36;;;;;;;;;;;;;;;;;;5006173;28;20283;-87
2023/07/18 10:20:42;;;;;;;;;;;;;;;;;;5021300;28;19925;-88
2023/07/18 10:23:08;;;;;;;;;;;;;;;;;;5007135;28;19927;-87
2023/07/18 10:25:34;;;;;;;;;;;;;;;;;;5006047;28;19921;-87
2023/07/18 10:28:00;;;;;;;;;;;;;;;;;;5007004;28;19924;-88
2023/07/18 10:30:26;;;;;;;;;;;;;;;;;;5004395;28;19944;-89
2023/07/18 10:32:52;;;;;;;;;;;;;;;;;;5005345;28;19974;-88
2023/07/18 10:35:19;;;;;;;;;;;;;;;;;;5006917;28;19921;-88
2023/07/18 10:37:46;;;;;;;;;;;;;;;;;;5007209;28;19932;-88
2023/07/18 10:40:12;;;;;;;;;;;;;;;;;;5006812;28;19971;-89
2023/07/18 10:42:38;;;;;;;;;;;;;;;;;;5006731;28;19921;-87
2023/07/18 10:45:04;;;;;;;;;;;;;;;;;;5006934;28;20269;-88
2023/07/18 10:47:30;;;;;;;;;;;;;;;;;;5006439;28;20423;-87
2023/07/18 10:49:56;;;;;;;;;;;;;;;;;;5006794;28;19925;-87
2023/07/18 10:52:22;;;;;;;;;;;;;;;;;;5000365;28;19972;-88
2023/07/18 10:57:52;;;;;;;;;;;;;;;;;;5041374;28;19928;-89
2023/07/18 11:00:18;;;;;;;;;;;;;;;;;;5007718;28;19925;-88
2023/07/18 11:02:44;;;;;;;;;;;;;;;;;;5019792;28;20395;-88
2023/07/18 11:05:11;;;;;;;;;;;;;;;;;;5003393;28;19929;-86
2023/07/18 11:07:36;;;;;;;;;;;;;;;;;;5003510;28;19972;-86
2023/07/18 11:10:03;;;;;;;;;;;;;;;;;;5002697;28;19929;-88
2023/07/18 11:12:29;;;;;;;;;;;;;;;;;;5004577;28;19921;-89
2023/07/18 11:14:55;;;;;;;;;;;;;;;;;;5007033;28;19921;-91
2023/07/18 11:17:21;;;;;;;;;;;;;;;;;;5007467;28;20368;-92
2023/07/18 11:19:47;;;;;;;;;;;;;;;;;;5008169;28;19936;-90
2023/07/18 11:22:13;;;;;;;;;;;;;;;;;;5009374;28;19921;-90
2023/07/18 11:24:47;;;;;;;;;;;;;;;;;;5008895;28;20004;-90
2023/07/18 11:27:14;;;;;;;;;;;;;;;;;;5007390;28;19921;-90
2023/07/18 11:29:40;;;;;;;;;;;;;;;;;;5008691;28;20525;-90
2023/07/18 11:32:06;;;;;;;;;;;;;;;;;;5007188;28;19977;-92
2023/07/18 11:34:32;;;;;;;;;;;;;;;;;;5009215;28;19929;-90
2023/07/18 11:36:58;;;;;;;;;;;;;;;;;;5006361;28;19921;-90
2023/07/18 11:39:24;;;;;;;;;;;;;;;;;;5009119;28;19929;-90
2023/07/18 11:41:51;;;;;;;;;;;;;;;;;;5023405;28;20004;-91
2023/07/18 11:47:21;;;;;;;;;;;;;;;;;;5048613;28;19920;-90
2023/07/18 11:49:47;;;;;;;;;;;;;;;;;;5009001;28;19909;-90
2023/07/18 11:52:13;;;;;;;;;;;;;;;;;;5023423;28;19921;-89
2023/07/18 11:54:39;;;;;;;;;;;;;;;;;;5006622;28;19925;-88
2023/07/18 11:57:05;;;;;;;;;;;;;;;;;;5005673;28;19966;-90
2023/07/18 11:59:31;;;;;;;;;;;;;;;;;;5008263;28;19925;-89
2023/07/18 12:01:57;;;;;;;;;;;;;;;;;;5008442;28;19928;-92
2023/07/18 12:04:23;;;;;;;;;;;;;;;;;;5008586;28;19992;-89
2023/07/18 12:06:49;;;;;;;;;;;;;;;;;;5023333;28;19925;-93
2023/07/18 12:09:15;;;;;;;;;;;;;;;;;;5009002;28;19928;-90
2023/07/18 12:11:42;;;;;;;;;;;;;;;;;;5000404;28;20296;-89
2023/07/18 12:14:08;;;;;;;;;;;;;;;;;;5008557;28;19928;-91
2023/07/18 12:16:34;;;;;;;;;;;;;;;;;;5008531;28;19921;-91
2023/07/18 12:19:02;;;;;;;;;;;;;;;;;;4999255;28;22123;-91
2023/07/18 12:21:28;;;;;;;;;;;;;;;;;;5024780;28;20322;-90
2023/07/18 12:23:54;;;;;;;;;;;;;;;;;;5025961;28;19971;-91
2023/07/18 12:26:20;;;;;;;;;;;;;;;;;;5008298;28;19921;-91
2023/07/18 12:28:46;;;;;;;;;;;;;;;;;;5010670;28;19905;-90
2023/07/18 12:31:15;;;;;;;;;;;;;;;;;;5014628;28;19925;-91
2023/07/18 12:33:41;;;;;;;;;;;;;;;;;;5015510;28;19932;-90
2023/07/18 12:36:07;;;;;;;;;;;;;;;;;;5026674;28;19926;-90
2023/07/18 12:38:32;;;;;;;;;;;;;;;;;;5014623;28;19975;-89
2023/07/18 12:40:58;;;;;;;;;;;;;;;;;;5014703;28;19921;-90
2023/07/18 12:43:25;;;;;;;;;;;;;;;;;;5014646;28;19921;-91
2023/07/18 12:45:51;;;;;;;;;;;;;;;;;;5014450;28;19931;-89
2023/07/18 12:48:17;;;;;;;;;;;;;;;;;;5030214;28;19921;-89
2023/07/18 12:50:43;;;;;;;;;;;;;;;;;;5026884;28;20097;-91
2023/07/18 12:53:09;;;;;;;;;;;;;;;;;;5014244;28;19928;-90
2023/07/18 12:55:35;;;;;;;;;;;;;;;;;;5013037;28;20400;-87
2023/07/18 12:58:02;;;;;;;;;;;;;;;;;;5014316;28;19967;-91
2023/07/18 13:00:40;;;;;;;;;;;;;;;;;;5010226;28;19929;-91
2023/07/18 13:03:06;;;;;;;;;;;;;;;;;;5023581;28;20403;-89
2023/07/18 13:05:32;;;;;;;;;;;;;;;;;;5027040;28;19980;-89
2023/07/18 13:07:58;;;;;;;;;;;;;;;;;;5012968;28;19928;-89
2023/07/18 13:10:24;;;;;;;;;;;;;;;;;;5013653;28;20008;-89
2023/07/18 13:12:50;;;;;;;;;;;;;;;;;;5029651;28;19921;-88
2023/07/18 13:15:16;;;;;;;;;;;;;;;;;;5029260;28;19968;-88
2023/07/18 13:17:42;;;;;;;;;;;;;;;;;;5027904;28;19971;-89
2023/07/18 13:20:11;;;;;;;;;;;;;;;;;;5025152;28;19928;-88
2023/07/18 13:22:44;;;;;;;;;;;;;;;;;;5030693;28;19921;-91
2023/07/18 13:25:10;;;;;;;;;;;;;;;;;;5031129;28;19936;-92
2023/07/18 13:27:36;;;;;;;;;;;;;;;;;;5014503;28;19921;-90
2023/07/18 13:30:02;;;;;;;;;;;;;;;;;;5013758;28;19979;-90
2023/07/18 13:32:28;;;;;;;;;;;;;;;;;;5030209;28;19921;-90
2023/07/18 13:35:12;;;;;;;;;;;;;;;;;;5030434;28;19921;-89
2023/07/18 13:37:39;;;;;;;;;;;;;;;;;;5002041;28;19977;-90
2023/07/18 13:40:05;;;;;;;;;;;;;;;;;;5006162;28;19921;-89
2023/07/18 13:42:31;;;;;;;;;;;;;;;;;;5019142;28;19971;-90
2023/07/18 13:44:57;;;;;;;;;;;;;;;;;;5011080;28;19921;-90
2023/07/18 13:47:23;;;;;;;;;;;;;;;;;;5009110;28;20300;-90
2023/07/18 13:49:49;;;;;;;;;;;;;;;;;;5009636;28;20354;-89
2023/07/18 13:52:18;;;;;;;;;;;;;;;;;;5020929;28;19924;-90
2023/07/18 13:54:44;;;;;;;;;;;;;;;;;;5007818;28;19921;-89
2023/07/18 13:57:10;;;;;;;;;;;;;;;;;;5009639;28;19925;-89
2023/07/18 13:59:36;;;;;;;;;;;;;;;;;;5006893;28;19944;-87
2023/07/18 14:02:02;;;;;;;;;;;;;;;;;;5010502;28;20678;-90
2023/07/18 14:04:28;;;;;;;;;;;;;;;;;;5011028;28;19967;-92
2023/07/18 14:06:58;;;;;;;;;;;;;;;;;;5026607;28;19928;-90
2023/07/18 14:09:27;;;;;;;;;;;;;;;;;;5022665;28;19921;-88
2023/07/18 14:11:53;;;;;;;;;;;;;;;;;;5031054;28;19932;-91
2023/07/18 14:14:19;;;;;;;;;;;;;;;;;;5026778;28;19925;-92
2023/07/18 14:16:45;;;;;;;;;;;;;;;;;;5040054;28;19948;-91
2023/07/18 14:19:11;;;;;;;;;;;;;;;;;;5009594;28;19933;-90
2023/07/18 14:21:37;;;;;;;;;;;;;;;;;;5009912;28;19921;-90
2023/07/18 14:24:03;;;;;;;;;;;;;;;;;;5009871;28;19932;-92
2023/07/18 14:26:29;;;;;;;;;;;;;;;;;;5029523;28;19975;-91
2023/07/18 14:28:55;;;;;;;;;;;;;;;;;;5009932;28;20008;-92
2023/07/18 14:31:21;;;;;;;;;;;;;;;;;;5026257;28;19921;-91
2023/07/18 14:33:48;;;;;;;;;;;;;;;;;;5025717;28;20296;-91
2023/07/18 14:36:14;;;;;;;;;;;;;;;;;;5007607;28;19929;-89
2023/07/18 14:38:40;;;;;;;;;;;;;;;;;;5009638;28;19928;-90
2023/07/18 14:41:06;;;;;;;;;;;;;;;;;;5009858;28;19925;-92
2023/07/18 14:43:32;;;;;;;;;;;;;;;;;;5029960;28;19920;-90
2023/07/18 14:45:58;;;;;;;;;;;;;;;;;;5009211;28;20291;-91
2023/07/18 14:48:24;;;;;;;;;;;;;;;;;;5025387;28;19921;-91
2023/07/18 14:50:50;;;;;;;;;;;;;;;;;;5025227;28;19921;-91
2023/07/18 14:53:16;;;;;;;;;;;;;;;;;;5042630;28;19988;-92
2023/07/18 14:55:42;;;;;;;;;;;;;;;;;;5026193;28;19996;-92
2023/07/18 14:58:08;;;;;;;;;;;;;;;;;;5025844;28;19925;-89
2023/07/18 15:00:37;;;;;;;;;;;;;;;;;;5013079;28;19921;-91
2023/07/18 15:03:03;;;;;;;;;;;;;;;;;;5016867;28;19933;-91
2023/07/18 15:05:30;;;;;;;;;;;;;;;;;;4990839;28;19929;-91
2023/07/18 15:07:56;;;;;;;;;;;;;;;;;;5009321;28;19931;-92
2023/07/18 15:10:22;;;;;;;;;;;;;;;;;;5001121;28;19992;-90
2023/07/18 15:12:48;;;;;;;;;;;;;;;;;;5026865;28;19921;-89
2023/07/18 15:15:14;;;;;;;;;;;;;;;;;;5025994;28;19985;-90
2023/07/18 15:17:40;;;;;;;;;;;;;;;;;;5000289;28;19957;-91
2023/07/18 15:20:08;;;;;;;;;;;;;;;;;;5006883;28;19925;-90
2023/07/18 15:22:34;;;;;;;;;;;;;;;;;;5012592;28;19971;-90
2023/07/18 15:25:00;;;;;;;;;;;;;;;;;;5000290;28;19925;-91
2023/07/18 15:27:34;;;;;;;;;;;;;;;;;;5019904;28;19929;-90
2023/07/18 15:30:12;;;;;;;;;;;;;;;;;;5008856;28;19971;-93
2023/07/18 15:32:41;;;;;;;;;;;;;;;;;;5005331;28;19967;-92
2023/07/18 15:35:07;;;;;;;;;;;;;;;;;;5003441;28;20288;-90
2023/07/18 15:37:33;;;;;;;;;;;;;;;;;;5007689;28;19935;-90
2023/07/18 15:40:00;;;;;;;;;;;;;;;;;;5007692;28;19921;-90
2023/07/18 15:42:26;;;;;;;;;;;;;;;;;;4997454;28;19927;-92
2023/07/18 15:44:52;;;;;;;;;;;;;;;;;;5009307;28;19953;-92
2023/07/18 15:47:19;;;;;;;;;;;;;;;;;;5009223;28;19921;-91
2023/07/18 15:49:45;;;;;;;;;;;;;;;;;;5031371;28;19921;-92
2023/07/18 15:52:11;;;;;;;;;;;;;;;;;;5009504;28;19921;-92
2023/07/18 15:54:37;;;;;;;;;;;;;;;;;;5009153;28;19921;-91
2023/07/18 15:57:03;;;;;;;;;;;;;;;;;;5025178;28;19951;-91
2023/07/18 15:59:29;;;;;;;;;;;;;;;;;;5008226;28;19983;-91
2023/07/18 16:01:55;;;;;;;;;;;;;;;;;;5008411;28;20015;-91
2023/07/18 16:04:21;;;;;;;;;;;;;;;;;;5008136;28;19921;-91
2023/07/18 16:06:47;;;;;;;;;;;;;;;;;;5008219;28;20011;-91
2023/07/18 16:09:13;;;;;;;;;;;;;;;;;;5009058;28;19992;-93
2023/07/18 16:11:39;;;;;;;;;;;;;;;;;;5009495;28;19921;-90
2023/07/18 16:14:05;;;;;;;;;;;;;;;;;;5023876;28;19921;-90
2023/07/18 16:16:36;;;;;;;;;;;;;;;;;;5024294;28;19940;-92
2023/07/18 16:19:03;;;;;;;;;;;;;;;;;;5007137;28;19921;-91
2023/07/18 16:21:29;;;;;;;;;;;;;;;;;;5007570;28;19975;-90
2023/07/18 16:23:55;;;;;;;;;;;;;;;;;;5007442;28;19925;-92
2023/07/18 16:26:21;;;;;;;;;;;;;;;;;;5008452;28;19979;-92
2023/07/18 16:28:47;;;;;;;;;;;;;;;;;;5024619;28;19925;-93
2023/07/18 16:31:14;;;;;;;;;;;;;;;;;;5024904;28;19925;-91
2023/07/18 16:33:43;;;;;;;;;;;;;;;;;;5007586;28;19925;-92
2023/07/18 16:36:08;;;;;;;;;;;;;;;;;;5013377;28;19924;-94
2023/07/18 16:38:49;;;;;;;;;;;;;;;;;;5011831;28;19928;-91
2023/07/18 16:41:15;;;;;;;;;;;;;;;;;;5003831;28;19940;-94
2023/07/18 16:43:41;;;;;;;;;;;;;;;;;;5006810;28;19932;-91
2023/07/18 16:46:12;;;;;;;;;;;;;;;;;;5009503;28;19977;-93
2023/07/18 16:48:38;;;;;;;;;;;;;;;;;;4996993;28;19921;-92
2023/07/18 16:51:04;;;;;;;;;;;;;;;;;;4998918;28;20376;-91
2023/07/18 16:56:35;;;;;;;;;;;;;;;;;;5041497;28;20441;-93
2023/07/18 16:59:02;;;;;;;;;;;;;;;;;;5033086;28;19925;-92
2023/07/18 17:04:31;;;;;;;;;;;;;;;;;;5029822;28;19955;-90